createdAt,value
2019-05-06T00:01:44.228Z,99.90
2019-05-06T00:04:14.095Z,99.90
2019-05-06T00:06:44.035Z,99.90
2019-05-06T00:09:14.742Z,99.90
2019-05-06T00:11:44.823Z,99.90
2019-05-06T00:14:14.349Z,99.90
2019-05-06T00:16:44.002Z,99.90
2019-05-06T00:19:13.918Z,99.90
2019-05-06T00:21:44.341Z,99.90
2019-05-06T00:24:14.563Z,99.90
2019-05-06T00:27:04.797Z,99.90
2019-05-06T00:29:34.933Z,99.90
2019-05-06T00:32:04.566Z,99.90
2019-05-06T00:34:34.165Z,99.90
2019-05-06T00:37:03.992Z,99.90
2019-05-06T00:39:51.110Z,99.90
2019-05-06T00:42:34.939Z,99.90
2019-05-06T00:45:05.373Z,99.90
2019-05-06T00:47:34.638Z,99.90
2019-05-06T00:50:04.372Z,99.90
2019-05-06T00:52:34.073Z,99.90
2019-05-06T00:55:04.095Z,99.90
2019-05-06T00:57:45.752Z,99.90
2019-05-06T01:00:21.235Z,99.90
2019-05-06T01:02:50.694Z,99.90
2019-05-06T01:05:20.020Z,99.90
2019-05-06T01:07:49.354Z,99.90
2019-05-06T01:10:18.871Z,99.90
2019-05-06T01:13:06.081Z,99.90
2019-05-06T01:15:35.671Z,99.90
2019-05-06T01:18:06.064Z,99.90
2019-05-06T01:20:35.373Z,99.90
2019-05-06T01:23:04.729Z,99.90
2019-05-06T01:25:34.595Z,99.90
2019-05-06T01:28:04.428Z,99.90
2019-05-06T01:30:34.277Z,99.90
2019-05-06T01:33:03.929Z,99.90
2019-05-06T01:35:35.227Z,99.90
2019-05-06T01:38:41.935Z,99.90
2019-05-06T01:41:24.434Z,99.90
2019-05-06T01:43:54.593Z,99.90
2019-05-06T01:46:24.564Z,99.90
2019-05-06T01:48:53.914Z,99.90
2019-05-06T01:51:24.144Z,99.90
2019-05-06T01:53:54.411Z,99.90
2019-05-06T01:56:24.283Z,99.90
2019-05-06T01:58:53.898Z,99.90
2019-05-06T02:01:25.065Z,99.90
2019-05-06T02:03:54.285Z,99.90
2019-05-06T02:06:24.926Z,99.90
2019-05-06T02:08:55.030Z,99.90
2019-05-06T02:11:24.408Z,99.90
2019-05-06T02:13:53.931Z,99.90
2019-05-06T02:16:24.072Z,99.90
2019-05-06T02:18:54.112Z,99.90
2019-05-06T02:21:43.693Z,99.90
2019-05-06T02:24:17.723Z,99.90
2019-05-06T02:26:47.026Z,99.90
2019-05-06T02:29:18.337Z,99.90
2019-05-06T02:32:17.174Z,99.90
2019-05-06T02:34:47.459Z,99.90
2019-05-06T02:37:25.150Z,99.90
2019-05-06T02:39:53.686Z,99.90
2019-05-06T02:42:23.931Z,99.90
2019-05-06T02:44:54.350Z,99.90
2019-05-06T02:47:49.106Z,99.90
2019-05-06T02:50:23.791Z,99.90
2019-05-06T02:52:53.760Z,99.90
2019-05-06T02:55:23.605Z,99.90
2019-05-06T02:57:53.872Z,99.90
2019-05-06T03:00:24.065Z,99.90
2019-05-06T03:02:54.322Z,99.90
2019-05-06T03:05:23.918Z,99.90
2019-05-06T03:07:57.027Z,99.90
2019-05-06T03:10:24.860Z,99.90
2019-05-06T03:12:54.503Z,99.90
2019-05-06T03:15:24.244Z,99.90
2019-05-06T03:17:55.404Z,99.90
2019-05-06T03:20:44.073Z,99.90
2019-05-06T03:23:14.616Z,99.90
2019-05-06T03:25:44.240Z,99.90
2019-05-06T03:28:13.772Z,99.90
2019-05-06T03:30:45.903Z,99.90
2019-05-06T03:33:37.018Z,99.90
2019-05-06T03:36:00.368Z,99.90
2019-05-06T03:38:16.586Z,99.90
2019-05-06T03:40:46.134Z,99.90
2019-05-06T03:43:16.099Z,99.90
2019-05-06T03:46:04.255Z,99.90
2019-05-06T03:48:36.522Z,99.90
2019-05-06T03:51:05.807Z,99.90
2019-05-06T03:53:36.969Z,99.90
2019-05-06T03:56:06.648Z,99.90
2019-05-06T03:58:38.109Z,99.90
2019-05-06T04:01:07.450Z,99.90
2019-05-06T04:03:47.062Z,99.90
2019-05-06T04:06:07.838Z,99.90
2019-05-06T04:08:37.650Z,99.90
2019-05-06T04:11:06.943Z,99.90
2019-05-06T04:13:36.524Z,99.90
2019-05-06T04:16:17.910Z,99.90
2019-05-06T04:18:53.845Z,99.90
2019-05-06T04:21:29.394Z,99.90
2019-05-06T04:24:18.985Z,99.90
2019-05-06T04:27:03.118Z,99.90
2019-05-06T04:29:35.591Z,99.90
2019-05-06T04:32:05.557Z,99.90
2019-05-06T04:34:34.928Z,99.90
2019-05-06T04:37:04.229Z,99.90
2019-05-06T04:39:33.982Z,99.90
2019-05-06T04:42:03.973Z,99.90
2019-05-06T04:44:33.336Z,99.90
2019-05-06T04:47:05.362Z,99.90
2019-05-06T04:49:35.243Z,99.90
2019-05-06T04:52:04.847Z,99.90
2019-05-06T04:54:34.431Z,99.90
2019-05-06T04:57:05.157Z,99.90
2019-05-06T04:59:35.263Z,99.90
2019-05-06T05:02:04.857Z,99.90
2019-05-06T05:04:36.840Z,99.90
2019-05-06T05:07:05.378Z,99.90
2019-05-06T05:09:35.127Z,99.90
2019-05-06T05:12:14.457Z,99.90
2019-05-06T05:14:52.039Z,99.90
2019-05-06T05:17:33.119Z,99.90
2019-05-06T05:20:03.056Z,99.90
2019-05-06T05:22:32.655Z,99.90
2019-05-06T05:25:03.488Z,99.90
2019-05-06T05:27:33.045Z,99.90
2019-05-06T05:30:02.573Z,99.90
2019-05-06T05:32:32.355Z,99.90
2019-05-06T05:35:02.160Z,99.90
2019-05-06T05:37:32.841Z,99.90
2019-05-06T05:40:03.123Z,99.90
2019-05-06T05:42:54.501Z,99.90
2019-05-06T05:45:24.158Z,99.90
2019-05-06T05:47:55.240Z,99.90
2019-05-06T05:50:32.547Z,99.90
2019-05-06T05:53:02.753Z,99.90
2019-05-06T05:55:33.047Z,99.90
2019-05-06T05:58:03.205Z,99.90
2019-05-06T06:00:34.581Z,99.90
2019-05-06T06:03:06.872Z,99.90
2019-05-06T06:05:35.079Z,99.90
2019-05-06T06:08:04.571Z,99.90
2019-05-06T06:10:42.478Z,99.90
2019-05-06T06:13:12.734Z,99.90
2019-05-06T06:15:52.019Z,99.90
2019-05-06T06:18:40.276Z,99.90
2019-05-06T06:21:34.906Z,99.90
2019-05-06T06:24:13.182Z,99.90
2019-05-06T06:26:43.054Z,99.90
2019-05-06T06:29:12.627Z,99.90
2019-05-06T06:32:16.278Z,99.90
2019-05-06T06:35:07.368Z,99.90
2019-05-06T06:37:42.764Z,99.90
2019-05-06T06:40:13.145Z,99.90
2019-05-06T06:42:42.823Z,99.90
2019-05-06T06:45:12.971Z,99.90
2019-05-06T06:47:42.590Z,99.90
2019-05-06T06:50:12.585Z,99.90
2019-05-06T06:52:42.281Z,99.90
2019-05-06T06:55:12.958Z,99.90
2019-05-06T06:58:12.001Z,99.90
2019-05-06T07:01:06.990Z,99.90
2019-05-06T07:03:54.888Z,99.90
2019-05-06T07:06:33.644Z,99.90
2019-05-06T07:09:05.081Z,99.90
2019-05-06T07:11:34.657Z,99.90
2019-05-06T07:14:04.193Z,99.90
2019-05-06T07:16:33.654Z,99.90
2019-05-06T07:19:03.210Z,99.90
2019-05-06T07:21:37.493Z,99.90
2019-05-06T07:24:06.926Z,99.90
2019-05-06T07:26:46.894Z,99.90
2019-05-06T07:29:23.527Z,99.90
2019-05-06T07:31:47.258Z,99.90
2019-05-06T07:34:16.728Z,99.90
2019-05-06T07:36:45.986Z,99.90
2019-05-06T07:39:15.757Z,99.90
2019-05-06T07:41:53.442Z,99.90
2019-05-06T07:44:33.191Z,99.90
2019-05-06T07:47:20.580Z,99.90
2019-05-06T07:49:49.865Z,99.90
2019-05-06T07:52:19.162Z,99.90
2019-05-06T07:54:48.722Z,99.90
2019-05-06T07:57:18.142Z,99.90
2019-05-06T07:59:47.438Z,99.90
2019-05-06T08:02:16.732Z,99.90
2019-05-06T08:04:47.876Z,99.90
2019-05-06T08:07:17.178Z,99.90
2019-05-06T08:09:46.787Z,99.90
2019-05-06T08:12:16.094Z,99.90
2019-05-06T08:14:45.454Z,99.90
2019-05-06T08:17:29.488Z,99.90
2019-05-06T08:19:58.770Z,99.90
2019-05-06T08:22:56.491Z,99.90
2019-05-06T08:25:25.791Z,99.90
2019-05-06T08:27:55.095Z,99.90
2019-05-06T08:30:24.441Z,99.90
2019-05-06T08:32:53.814Z,99.90
2019-05-06T08:35:23.383Z,99.90
2019-05-06T08:37:53.205Z,99.90
2019-05-06T08:40:23.715Z,99.90
2019-05-06T08:42:53.665Z,99.90
2019-05-06T08:45:22.946Z,99.90
2019-05-06T08:47:52.633Z,99.90
2019-05-06T08:50:32.559Z,99.90
2019-05-06T08:53:30.115Z,99.90
2019-05-06T08:56:01.845Z,99.90
2019-05-06T08:58:49.295Z,99.90
2019-05-06T09:01:29.332Z,99.90
2019-05-06T09:04:12.414Z,99.90
2019-05-06T09:06:39.439Z,99.90
2019-05-06T09:09:10.019Z,99.90
2019-05-06T09:11:39.366Z,99.90
2019-05-06T09:14:09.960Z,99.90
2019-05-06T09:16:40.326Z,99.90
2019-05-06T09:19:09.769Z,99.90
2019-05-06T09:21:42.682Z,99.90
2019-05-06T09:24:12.594Z,99.90
2019-05-06T09:26:47.984Z,99.90
2019-05-06T09:29:26.909Z,99.90
2019-05-06T09:31:58.121Z,99.90
2019-05-06T09:34:36.251Z,99.90
2019-05-06T09:37:13.631Z,99.90
2019-05-06T09:39:44.975Z,99.60
2019-05-06T09:42:15.008Z,99.60
2019-05-06T09:44:45.581Z,99.20
2019-05-06T09:47:43.457Z,98.90
2019-05-06T09:50:16.628Z,97.60
2019-05-06T09:52:46.005Z,96.70
2019-05-06T09:55:32.577Z,97.00
2019-05-06T09:58:03.738Z,96.90
2019-05-06T10:00:35.675Z,97.40
2019-05-06T10:03:05.554Z,97.30
2019-05-06T10:05:34.967Z,96.90
2019-05-06T10:08:04.319Z,96.60
2019-05-06T10:10:33.698Z,96.50
2019-05-06T10:13:03.074Z,96.40
2019-05-06T10:15:32.813Z,95.80
2019-05-06T10:18:08.390Z,95.50
2019-05-06T10:20:42.269Z,94.80
2019-05-06T10:23:11.835Z,95.00
2019-05-06T10:25:43.597Z,95.50
2019-05-06T10:28:20.137Z,95.40
2019-05-06T10:30:49.439Z,95.20
2019-05-06T10:33:20.942Z,95.50
2019-05-06T10:35:52.873Z,95.60
2019-05-06T10:38:32.031Z,95.10
2019-05-06T10:41:07.554Z,95.50
2019-05-06T10:44:03.020Z,95.50
2019-05-06T10:46:32.765Z,95.00
2019-05-06T10:49:02.650Z,94.90
2019-05-06T10:51:40.150Z,94.80
2019-05-06T10:54:11.752Z,95.20
2019-05-06T10:56:58.579Z,94.50
2019-05-06T10:59:28.214Z,94.30
2019-05-06T11:02:04.996Z,94.50
2019-05-06T11:04:33.115Z,94.40
2019-05-06T11:07:04.105Z,94.40
2019-05-06T11:09:33.605Z,94.50
2019-05-06T11:12:03.412Z,94.00
2019-05-06T11:14:33.143Z,93.70
2019-05-06T11:17:04.831Z,94.00
2019-05-06T11:19:33.634Z,93.90
2019-05-06T11:22:03.809Z,93.50
2019-05-06T11:24:33.211Z,92.50
2019-05-06T11:27:03.625Z,92.30
2019-05-06T11:29:36.707Z,92.00
2019-05-06T11:32:24.409Z,91.90
2019-05-06T11:35:03.752Z,91.10
2019-05-06T11:37:50.539Z,90.90
2019-05-06T11:40:17.426Z,90.80
2019-05-06T11:42:46.770Z,90.80
2019-05-06T11:45:16.088Z,90.30
2019-05-06T11:47:45.484Z,90.90
2019-05-06T11:50:14.916Z,91.00
2019-05-06T11:52:44.298Z,90.30
2019-05-06T11:55:27.497Z,90.70
2019-05-06T11:57:46.246Z,90.60
2019-05-06T12:00:19.048Z,90.50
2019-05-06T12:02:49.066Z,89.80
2019-05-06T12:05:18.608Z,90.40
2019-05-06T12:08:00.986Z,90.00
2019-05-06T12:10:19.077Z,89.40
2019-05-06T12:12:48.471Z,88.50
2019-05-06T12:15:17.851Z,88.40
2019-05-06T12:17:47.229Z,88.70
2019-05-06T12:20:17.230Z,89.70
2019-05-06T12:22:46.501Z,87.90
2019-05-06T12:25:15.976Z,89.30
2019-05-06T12:27:45.678Z,90.10
2019-05-06T12:30:23.054Z,89.00
2019-05-06T12:33:13.020Z,89.40
2019-05-06T12:35:45.940Z,88.80
2019-05-06T12:38:29.498Z,87.50
2019-05-06T12:40:53.040Z,85.40
2019-05-06T12:43:45.831Z,83.90
2019-05-06T12:46:24.832Z,85.70
2019-05-06T12:48:54.280Z,88.20
2019-05-06T12:51:23.557Z,90.40
2019-05-06T12:53:53.086Z,90.00
2019-05-06T12:56:22.573Z,90.10
2019-05-06T12:58:52.516Z,90.50
2019-05-06T13:01:22.207Z,89.30
2019-05-06T13:03:52.566Z,89.50
2019-05-06T13:06:26.291Z,88.30
2019-05-06T13:09:01.139Z,87.00
2019-05-06T13:11:24.227Z,85.90
2019-05-06T13:14:00.121Z,85.10
2019-05-06T13:16:24.605Z,84.20
2019-05-06T13:18:54.949Z,85.10
2019-05-06T13:21:24.514Z,85.00
2019-05-06T13:24:04.349Z,84.90
2019-05-06T13:26:32.877Z,85.40
2019-05-06T13:29:07.210Z,83.20
2019-05-06T13:31:36.575Z,79.70
2019-05-06T13:34:13.960Z,77.80
2019-05-06T13:36:43.521Z,79.00
2019-05-06T13:39:15.013Z,77.90
2019-05-06T13:41:44.006Z,80.70
2019-05-06T13:44:18.148Z,80.50
2019-05-06T13:46:53.380Z,76.70
2019-05-06T13:49:37.854Z,74.40
2019-05-06T13:52:08.935Z,76.80
2019-05-06T13:54:38.390Z,78.70
2019-05-06T13:57:07.965Z,79.50
2019-05-06T13:59:37.507Z,80.60
2019-05-06T14:02:25.782Z,81.60
2019-05-06T14:04:55.175Z,82.80
2019-05-06T14:07:24.699Z,84.40
2019-05-06T14:09:54.112Z,84.60
2019-05-06T14:12:23.551Z,83.50
2019-05-06T14:14:52.915Z,82.90
2019-05-06T14:17:22.530Z,83.90
2019-05-06T14:19:53.432Z,82.40
2019-05-06T14:22:23.462Z,82.60
2019-05-06T14:24:59.787Z,81.70
2019-05-06T14:27:29.164Z,80.80
2019-05-06T14:30:04.667Z,78.80
2019-05-06T14:32:34.238Z,78.10
2019-05-06T14:35:03.852Z,77.80
2019-05-06T14:37:33.253Z,78.80
2019-05-06T14:40:04.151Z,79.70
2019-05-06T14:42:33.730Z,82.90
2019-05-06T14:45:03.186Z,84.10
2019-05-06T14:47:35.245Z,85.90
2019-05-06T14:50:05.196Z,87.50
2019-05-06T14:52:34.547Z,89.10
2019-05-06T14:55:15.288Z,90.00
2019-05-06T14:57:44.141Z,89.10
2019-05-06T15:00:16.550Z,89.90
2019-05-06T15:02:47.445Z,89.20
2019-05-06T15:05:17.170Z,88.50
2019-05-06T15:07:46.455Z,88.60
2019-05-06T15:10:22.172Z,88.70
2019-05-06T15:12:46.911Z,88.90
2019-05-06T15:15:16.485Z,87.80
2019-05-06T15:17:46.230Z,86.90
2019-05-06T15:20:15.550Z,88.80
2019-05-06T15:22:45.875Z,88.00
2019-05-06T15:25:15.253Z,88.90
2019-05-06T15:27:44.532Z,87.30
2019-05-06T15:30:19.618Z,85.60
2019-05-06T15:32:48.953Z,84.10
2019-05-06T15:35:41.871Z,83.10
2019-05-06T15:38:19.101Z,84.00
2019-05-06T15:40:48.431Z,83.00
2019-05-06T15:43:17.985Z,83.70
2019-05-06T15:45:47.340Z,83.10
2019-05-06T15:48:16.737Z,83.10
2019-05-06T15:50:46.127Z,81.30
2019-05-06T15:53:15.518Z,80.70
2019-05-06T15:55:44.848Z,81.60
2019-05-06T15:58:14.139Z,79.40
2019-05-06T16:00:43.431Z,76.10
2019-05-06T16:03:13.190Z,74.00
2019-05-06T16:05:43.653Z,70.90
2019-05-06T16:08:13.246Z,69.60
2019-05-06T16:10:51.812Z,69.50
2019-05-06T16:13:13.795Z,69.00
2019-05-06T16:15:44.642Z,66.70
2019-05-06T16:18:13.935Z,66.20
2019-05-06T16:20:43.289Z,64.00
2019-05-06T16:23:23.090Z,61.70
2019-05-06T16:25:52.595Z,59.10
2019-05-06T16:28:24.707Z,59.50
2019-05-06T16:30:55.305Z,60.50
2019-05-06T16:33:24.659Z,62.20
2019-05-06T16:36:13.224Z,63.40
2019-05-06T16:38:42.938Z,63.60
2019-05-06T16:41:16.046Z,64.70
2019-05-06T16:43:43.467Z,65.20
2019-05-06T16:46:14.470Z,65.00
2019-05-06T16:48:45.379Z,66.80
2019-05-06T16:51:14.982Z,69.40
2019-05-06T16:53:44.422Z,70.60
2019-05-06T16:56:26.069Z,71.60
2019-05-06T16:58:58.172Z,72.40
2019-05-06T17:01:27.451Z,73.70
2019-05-06T17:04:19.942Z,75.30
2019-05-06T17:06:49.254Z,77.00
2019-05-06T17:09:24.272Z,78.60
2019-05-06T17:11:49.570Z,80.30
2019-05-06T17:14:18.869Z,81.60
2019-05-06T17:16:48.620Z,81.90
2019-05-06T17:19:18.059Z,82.90
2019-05-06T17:21:48.877Z,84.30
2019-05-06T17:24:18.239Z,84.50
2019-05-06T17:26:47.569Z,86.50
2019-05-06T17:29:34.576Z,86.40
2019-05-06T17:32:16.255Z,88.20
2019-05-06T17:34:48.885Z,88.10
2019-05-06T17:37:37.099Z,90.00
2019-05-06T17:40:13.247Z,90.70
2019-05-06T17:42:39.539Z,91.30
2019-05-06T17:45:27.435Z,91.20
2019-05-06T17:48:02.906Z,91.60
2019-05-06T17:50:33.213Z,91.90
2019-05-06T17:53:04.438Z,92.30
2019-05-06T17:55:33.797Z,92.40
2019-05-06T17:58:03.198Z,92.70
2019-05-06T18:00:32.841Z,92.90
2019-05-06T18:03:02.627Z,93.30
2019-05-06T18:05:32.623Z,93.60
2019-05-06T18:08:03.035Z,93.90
2019-05-06T18:10:33.458Z,93.90
2019-05-06T18:13:03.542Z,94.10
2019-05-06T18:15:32.867Z,94.30
2019-05-06T18:18:02.311Z,94.30
2019-05-06T18:20:33.505Z,94.30
2019-05-06T18:23:02.661Z,94.40
2019-05-06T18:25:32.940Z,94.60
2019-05-06T18:28:02.754Z,94.50
2019-05-06T18:30:34.325Z,94.90
2019-05-06T18:33:05.203Z,94.70
2019-05-06T18:35:34.554Z,94.80
2019-05-06T18:38:04.173Z,94.90
2019-05-06T18:40:33.494Z,95.10
2019-05-06T18:43:02.819Z,95.30
2019-05-06T18:45:33.293Z,95.40
2019-05-06T18:48:02.906Z,95.50
2019-05-06T18:50:32.685Z,95.80
2019-05-06T18:53:02.512Z,95.70
2019-05-06T18:55:33.031Z,95.50
2019-05-06T18:58:02.535Z,95.70
2019-05-06T19:00:32.346Z,95.90
2019-05-06T19:03:02.706Z,96.20
2019-05-06T19:05:35.833Z,96.40
2019-05-06T19:08:12.427Z,96.40
2019-05-06T19:10:42.488Z,96.50
2019-05-06T19:13:12.643Z,96.60
2019-05-06T19:15:43.469Z,96.90
2019-05-06T19:18:12.969Z,97.00
2019-05-06T19:20:43.411Z,97.20
2019-05-06T19:23:13.113Z,97.40
2019-05-06T19:25:42.898Z,97.30
2019-05-06T19:28:14.190Z,97.30
2019-05-06T19:30:43.619Z,97.30
2019-05-06T19:33:12.925Z,97.40
2019-05-06T19:35:42.845Z,97.50
2019-05-06T19:38:12.562Z,97.60
2019-05-06T19:40:42.374Z,97.40
2019-05-06T19:43:12.405Z,97.60
2019-05-06T19:45:42.284Z,97.50
2019-05-06T19:48:13.391Z,97.80
2019-05-06T19:50:43.244Z,98.30
2019-05-06T19:53:13.006Z,97.90
2019-05-06T19:55:46.635Z,98.10
2019-05-06T19:58:13.353Z,97.80
2019-05-06T20:00:42.760Z,97.90
2019-05-06T20:03:12.351Z,97.80
2019-05-06T20:06:03.761Z,97.90
2019-05-06T20:08:45.075Z,98.00
2019-05-06T20:11:22.823Z,97.90
2019-05-06T20:13:53.672Z,98.20
2019-05-06T20:16:23.089Z,98.40
2019-05-06T20:18:52.666Z,98.50
2019-05-06T20:21:23.054Z,98.60
2019-05-06T20:23:52.772Z,98.90
2019-05-06T20:26:22.231Z,99.10
2019-05-06T20:28:52.577Z,99.20
2019-05-06T20:31:22.667Z,99.30
2019-05-06T20:33:52.848Z,99.40
2019-05-06T20:36:22.684Z,99.40
2019-05-06T20:38:52.248Z,99.80
2019-05-06T20:41:22.154Z,99.90
2019-05-06T20:43:51.559Z,99.90
2019-05-06T20:46:22.005Z,99.90
2019-05-06T20:48:52.938Z,99.90
2019-05-06T20:51:22.333Z,99.90
2019-05-06T20:53:52.769Z,99.90
2019-05-06T20:56:22.158Z,99.90
2019-05-06T20:58:52.878Z,99.90
2019-05-06T21:01:22.274Z,99.90
2019-05-06T21:03:52.837Z,99.90
2019-05-06T21:06:22.633Z,99.90
2019-05-06T21:08:53.052Z,99.90
2019-05-06T21:11:28.860Z,99.80
2019-05-06T21:13:53.508Z,99.90
2019-05-06T21:16:22.861Z,99.90
2019-05-06T21:18:52.233Z,99.90
2019-05-06T21:21:21.585Z,99.90
2019-05-06T21:23:52.432Z,99.90
2019-05-06T21:26:22.138Z,99.90
2019-05-06T21:28:52.253Z,99.90
2019-05-06T21:31:21.771Z,99.90
2019-05-06T21:33:52.186Z,99.90
2019-05-06T21:36:23.059Z,99.90
2019-05-06T21:38:52.668Z,99.90
2019-05-06T21:41:22.233Z,99.90
2019-05-06T21:43:51.729Z,99.90
2019-05-06T21:46:21.077Z,99.90
2019-05-06T21:48:50.395Z,99.90
2019-05-06T21:51:21.821Z,99.90
2019-05-06T21:53:50.762Z,99.90
2019-05-06T21:56:22.090Z,99.90
2019-05-06T21:58:52.392Z,99.90
2019-05-06T22:01:22.202Z,99.90
2019-05-06T22:03:51.603Z,99.90
2019-05-06T22:06:22.511Z,99.90
2019-05-06T22:08:52.058Z,99.90
2019-05-06T22:11:24.275Z,99.90
2019-05-06T22:14:00.862Z,99.90
2019-05-06T22:16:23.750Z,99.90
2019-05-06T22:18:53.357Z,99.90
2019-05-06T22:21:27.255Z,99.90
2019-05-06T22:24:04.350Z,99.90
2019-05-06T22:26:32.638Z,99.90
2019-05-06T22:29:02.246Z,99.90
2019-05-06T22:31:33.032Z,99.90
2019-05-06T22:34:03.131Z,99.90
2019-05-06T22:36:32.530Z,99.90
2019-05-06T22:39:02.545Z,99.90
2019-05-06T22:41:32.665Z,99.90
2019-05-06T22:44:13.189Z,99.90
2019-05-06T22:46:35.839Z,99.90
2019-05-06T22:49:05.110Z,99.90
2019-05-06T22:51:35.851Z,99.90
2019-05-06T22:54:05.203Z,99.90
2019-05-06T22:56:34.516Z,99.90
2019-05-06T22:59:03.866Z,99.90
2019-05-06T23:01:55.437Z,99.90
2019-05-06T23:04:26.543Z,99.90
2019-05-06T23:06:55.958Z,99.90
2019-05-06T23:09:25.268Z,99.90
2019-05-06T23:11:54.541Z,99.90
2019-05-06T23:14:31.314Z,99.90
2019-05-06T23:16:54.909Z,99.90
2019-05-06T23:19:24.598Z,99.90
2019-05-06T23:21:53.978Z,99.90
2019-05-06T23:24:23.350Z,99.90
2019-05-06T23:26:54.721Z,99.90
2019-05-06T23:29:23.687Z,99.90
2019-05-06T23:31:53.111Z,99.90
2019-05-06T23:34:23.137Z,99.90
2019-05-06T23:37:22.945Z,99.90
2019-05-06T23:40:34.172Z,99.90
2019-05-06T23:43:42.612Z,99.90
2019-05-06T23:46:48.020Z,99.90
2019-05-06T23:49:54.535Z,99.90
2019-05-06T23:52:59.680Z,99.90
2019-05-06T23:56:05.151Z,99.90
2019-05-06T23:58:34.440Z,99.90
